createdAt,value
2016-08-30T00:00:25.452Z,960.74
2016-08-30T00:01:29.051Z,960.70
2016-08-30T00:02:28.922Z,960.66
2016-08-30T00:04:22.505Z,960.67
2016-08-30T00:05:25.697Z,960.66
2016-08-30T00:06:25.450Z,960.69
2016-08-30T00:08:21.753Z,960.70
2016-08-30T00:09:22.849Z,960.71
2016-08-30T00:10:28.944Z,960.72
2016-08-30T00:13:37.547Z,960.74
2016-08-30T00:23:24.405Z,960.75
2016-08-30T00:24:36.362Z,960.72
2016-08-30T00:33:24.373Z,960.71
2016-08-30T00:34:31.961Z,960.70
2016-08-30T00:35:38.413Z,960.69
2016-08-30T00:37:29.797Z,960.70
2016-08-30T00:46:35.352Z,960.64
2016-08-30T00:53:38.797Z,960.56
2016-08-30T00:54:38.473Z,960.59
2016-08-30T00:55:30.795Z,960.59
2016-08-30T01:06:34.252Z,960.52
2016-08-30T01:07:17.587Z,960.54
2016-08-30T01:08:49.337Z,960.55
2016-08-30T01:09:23.604Z,960.50
2016-08-30T01:12:39.825Z,960.51
2016-08-30T01:15:40.044Z,960.55
2016-08-30T01:16:23.878Z,960.53
2016-08-30T01:17:25.028Z,960.52
2016-08-30T01:18:19.921Z,960.53
2016-08-30T01:19:24.108Z,960.56
2016-08-30T01:20:21.891Z,960.55
2016-08-30T01:21:17.721Z,960.53
2016-08-30T01:22:50.582Z,960.53
2016-08-30T01:23:27.221Z,960.57
2016-08-30T01:24:23.256Z,960.57
2016-08-30T01:25:26.411Z,960.62
2016-08-30T01:26:19.264Z,960.61
2016-08-30T01:27:23.374Z,960.58
2016-08-30T01:28:20.893Z,960.59
2016-08-30T01:29:23.111Z,960.59
2016-08-30T01:40:39.626Z,960.58
2016-08-30T01:45:26.669Z,960.54
2016-08-30T01:46:22.009Z,960.53
2016-08-30T01:47:29.394Z,960.56
2016-08-30T01:48:24.168Z,960.53
2016-08-30T01:49:26.391Z,960.55
2016-08-30T01:51:54.801Z,960.56
2016-08-30T01:52:28.675Z,960.61
2016-08-30T01:53:25.232Z,960.60
2016-08-30T01:54:16.979Z,960.61
2016-08-30T01:55:28.750Z,960.61
2016-08-30T02:00:29.201Z,960.57
2016-08-30T02:01:49.239Z,960.58
2016-08-30T02:02:23.017Z,960.58
2016-08-30T02:03:28.256Z,960.59
2016-08-30T02:04:26.433Z,960.60
2016-08-30T02:05:24.379Z,960.60
2016-08-30T02:06:27.592Z,960.57
2016-08-30T02:19:29.641Z,960.70
2016-08-30T02:20:23.086Z,960.69
2016-08-30T02:21:29.119Z,960.72
2016-08-30T02:22:29.182Z,960.72
2016-08-30T02:23:24.773Z,960.71
2016-08-30T02:24:18.919Z,960.73
2016-08-30T02:25:24.498Z,960.68
2016-08-30T02:26:29.338Z,960.68
2016-08-30T02:27:22.981Z,960.69
2016-08-30T02:28:39.239Z,960.70
2016-08-30T02:30:22.966Z,960.68
2016-08-30T02:31:20.230Z,960.67
2016-08-30T02:32:24.237Z,960.71
2016-08-30T02:33:27.189Z,960.75
2016-08-30T02:34:33.776Z,960.74
2016-08-30T02:35:28.058Z,960.77
2016-08-30T02:36:38.086Z,960.83
2016-08-30T02:37:20.118Z,960.78
2016-08-30T02:38:20.243Z,960.80
2016-08-30T02:40:01.086Z,960.81
2016-08-30T02:40:26.075Z,960.75
2016-08-30T02:41:23.223Z,960.75
2016-08-30T02:42:29.126Z,960.78
2016-08-30T02:43:19.531Z,960.73
2016-08-30T02:44:27.902Z,960.72
2016-08-30T02:45:32.498Z,960.67
2016-08-30T02:46:29.198Z,960.71
2016-08-30T02:47:23.780Z,960.70
2016-08-30T02:48:39.716Z,960.72
2016-08-30T02:49:40.338Z,960.68
2016-08-30T02:50:46.464Z,960.68
2016-08-30T02:51:59.202Z,960.73
2016-08-30T02:52:22.270Z,960.70
2016-08-30T02:53:26.828Z,960.73
2016-08-30T02:54:29.427Z,960.71
2016-08-30T02:55:25.399Z,960.71
2016-08-30T02:57:43.950Z,960.81
2016-08-30T02:58:41.624Z,960.79
2016-08-30T02:59:22.531Z,960.81
2016-08-30T03:00:23.889Z,960.83
2016-08-30T03:03:29.380Z,960.81
2016-08-30T03:06:41.203Z,960.80
2016-08-30T03:08:30.344Z,960.81
2016-08-30T03:09:56.001Z,960.78
2016-08-30T03:10:36.317Z,960.77
2016-08-30T03:13:28.902Z,960.80
2016-08-30T03:17:28.474Z,960.81
2016-08-30T03:18:26.935Z,960.86
2016-08-30T03:19:20.294Z,960.84
2016-08-30T03:24:29.123Z,960.86
2016-08-30T03:25:23.632Z,960.87
2016-08-30T03:26:24.802Z,960.86
2016-08-30T03:27:25.341Z,960.89
2016-08-30T03:28:19.759Z,960.92
2016-08-30T03:30:01.329Z,960.87
2016-08-30T03:31:24.875Z,960.87
2016-08-30T03:38:25.613Z,960.81
2016-08-30T03:39:24.153Z,960.85
2016-08-30T03:40:22.646Z,960.84
2016-08-30T03:41:22.438Z,960.86
2016-08-30T03:43:23.873Z,960.85
2016-08-30T03:46:19.645Z,960.81
2016-08-30T03:47:31.922Z,960.78
2016-08-30T03:48:44.578Z,960.81
2016-08-30T03:49:22.953Z,960.76
2016-08-30T03:54:25.353Z,960.79
2016-08-30T03:55:29.394Z,960.80
2016-08-30T04:01:39.438Z,960.79
2016-08-30T04:03:20.898Z,960.84
2016-08-30T04:05:33.891Z,960.84
2016-08-30T04:06:24.568Z,960.81
2016-08-30T04:07:26.108Z,960.84
2016-08-30T04:09:23.078Z,960.79
2016-08-30T04:09:28.336Z,960.75
2016-08-30T04:11:39.804Z,960.76
2016-08-30T04:12:27.138Z,960.77
2016-08-30T04:13:33.397Z,960.76
2016-08-30T04:15:23.389Z,960.72
2016-08-30T04:16:20.201Z,960.72
2016-08-30T04:18:08.576Z,960.78
2016-08-30T04:18:24.060Z,960.76
2016-08-30T04:19:23.783Z,960.74
2016-08-30T04:20:40.817Z,960.76
2016-08-30T04:21:36.007Z,960.75
2016-08-30T04:22:34.116Z,960.78
2016-08-30T04:24:25.775Z,960.77
2016-08-30T04:24:56.622Z,960.79
2016-08-30T04:26:24.207Z,960.82
2016-08-30T04:28:25.402Z,960.79
2016-08-30T04:29:25.651Z,960.81
2016-08-30T04:34:44.692Z,960.78
2016-08-30T04:35:24.619Z,960.78
2016-08-30T04:38:24.480Z,960.77
2016-08-30T04:39:28.620Z,960.79
2016-08-30T04:40:24.103Z,960.81
2016-08-30T04:41:27.336Z,960.79
2016-08-30T04:51:27.910Z,960.96
2016-08-30T04:52:25.999Z,960.97
2016-08-30T04:53:22.020Z,960.96
2016-08-30T04:54:19.121Z,960.99
2016-08-30T04:55:31.467Z,961.01
2016-08-30T04:56:23.237Z,961.03
2016-08-30T04:57:27.425Z,961.03
2016-08-30T04:58:27.682Z,961.02
2016-08-30T04:59:21.061Z,961.08
2016-08-30T05:00:23.642Z,961.07
2016-08-30T05:01:25.270Z,961.11
2016-08-30T05:02:29.182Z,961.10
2016-08-30T05:03:38.614Z,961.11
2016-08-30T05:04:26.059Z,961.15
2016-08-30T05:05:23.576Z,961.15
2016-08-30T05:06:24.640Z,961.15
2016-08-30T05:07:26.734Z,961.13
2016-08-30T05:08:26.254Z,961.13
2016-08-30T05:09:17.456Z,961.18
2016-08-30T05:10:22.954Z,961.17
2016-08-30T05:11:28.160Z,961.20
2016-08-30T05:15:21.908Z,961.28
2016-08-30T05:16:27.356Z,961.32
2016-08-30T05:31:31.692Z,961.46
2016-08-30T05:32:27.492Z,961.55
2016-08-30T05:32:34.873Z,961.36
2016-08-30T05:33:20.616Z,961.55
2016-08-30T05:34:35.401Z,961.53
2016-08-30T05:35:16.795Z,961.55
2016-08-30T05:36:25.304Z,961.61
2016-08-30T05:37:29.684Z,961.55
2016-08-30T05:40:25.032Z,961.61
2016-08-30T05:41:21.122Z,961.62
2016-08-30T05:42:23.701Z,961.63
2016-08-30T05:43:20.288Z,961.63
2016-08-30T05:44:25.654Z,961.68
2016-08-30T05:45:28.612Z,961.66
2016-08-30T05:46:24.983Z,961.67
2016-08-30T05:47:20.504Z,961.64
2016-08-30T05:48:28.643Z,961.65
2016-08-30T05:49:25.067Z,961.63
2016-08-30T05:52:01.960Z,961.70
2016-08-30T05:52:30.409Z,961.70
2016-08-30T05:53:26.304Z,961.71
2016-08-30T05:57:22.865Z,961.77
2016-08-30T05:57:52.222Z,961.74
2016-08-30T05:58:28.725Z,961.78
2016-08-30T05:58:54.875Z,961.76
2016-08-30T06:02:39.417Z,961.85
2016-08-30T06:03:25.463Z,961.87
2016-08-30T06:04:30.277Z,961.84
2016-08-30T06:05:17.897Z,961.78
2016-08-30T06:05:54.590Z,961.87
2016-08-30T06:06:51.090Z,961.88
2016-08-30T06:08:50.910Z,961.93
2016-08-30T06:09:31.698Z,961.92
2016-08-30T06:10:57.724Z,961.94
2016-08-30T06:12:19.018Z,961.95
2016-08-30T06:13:16.563Z,962.00
2016-08-30T06:14:29.054Z,961.98
2016-08-30T06:19:27.776Z,962.00
2016-08-30T06:20:32.035Z,962.01
2016-08-30T06:21:19.300Z,962.04
2016-08-30T06:22:22.805Z,962.03
2016-08-30T06:26:43.286Z,962.05
2016-08-30T06:27:20.676Z,962.08
2016-08-30T06:28:24.566Z,962.08
2016-08-30T06:29:28.040Z,962.04
2016-08-30T06:31:20.726Z,962.08
2016-08-30T06:32:23.347Z,962.03
2016-08-30T06:33:20.961Z,962.05
2016-08-30T06:34:24.594Z,962.02
2016-08-30T06:35:22.686Z,962.05
2016-08-30T06:36:23.908Z,962.07
2016-08-30T06:37:21.560Z,962.04
2016-08-30T06:39:26.478Z,962.07
2016-08-30T06:40:18.595Z,962.05
2016-08-30T06:41:32.380Z,962.00
2016-08-30T06:42:32.914Z,962.03
2016-08-30T06:43:36.043Z,961.98
2016-08-30T06:44:23.423Z,961.98
2016-08-30T06:46:27.261Z,962.02
2016-08-30T06:47:24.687Z,962.02
2016-08-30T06:48:28.883Z,962.06
2016-08-30T06:49:21.513Z,962.11
2016-08-30T06:50:22.791Z,962.09
2016-08-30T06:51:27.187Z,962.13
2016-08-30T06:52:17.788Z,962.17
2016-08-30T06:54:08.406Z,962.17
2016-08-30T06:54:20.545Z,962.16
2016-08-30T06:55:11.384Z,962.21
2016-08-30T06:56:08.267Z,962.22
2016-08-30T06:57:24.933Z,962.17
2016-08-30T06:58:29.389Z,962.17
2016-08-30T06:59:22.744Z,962.20
2016-08-30T07:00:21.319Z,962.19
2016-08-30T07:01:27.549Z,962.23
2016-08-30T07:02:21.844Z,962.25
2016-08-30T07:03:25.124Z,962.24
2016-08-30T07:04:27.506Z,962.28
2016-08-30T07:05:28.033Z,962.28
2016-08-30T07:06:21.750Z,962.37
2016-08-30T07:07:30.835Z,962.34
2016-08-30T07:08:19.229Z,962.38
2016-08-30T07:09:24.308Z,962.34
2016-08-30T07:10:22.476Z,962.35
2016-08-30T07:15:32.345Z,962.40
2016-08-30T07:17:23.560Z,962.41
2016-08-30T07:18:28.001Z,962.42
2016-08-30T07:19:22.248Z,962.42
2016-08-30T07:20:32.740Z,962.41
2016-08-30T07:21:31.018Z,962.44
2016-08-30T07:22:24.046Z,962.44
2016-08-30T07:23:54.764Z,962.42
2016-08-30T07:24:19.149Z,962.44
2016-08-30T07:25:39.828Z,962.45
2016-08-30T07:26:29.301Z,962.45
2016-08-30T10:05:29.110Z,962.64
2016-08-30T10:09:26.918Z,962.63
2016-08-30T10:22:28.890Z,962.60
2016-08-30T10:24:51.062Z,962.65
2016-08-30T10:28:20.094Z,962.62
2016-08-30T10:31:17.690Z,962.63
2016-08-30T10:32:38.643Z,962.66
2016-08-30T10:38:30.197Z,962.62
2016-08-30T10:42:27.620Z,962.65
2016-08-30T10:45:20.963Z,962.64
2016-08-30T10:46:20.388Z,962.60
2016-08-30T10:53:35.304Z,962.63
2016-08-30T10:54:23.257Z,962.65
2016-08-30T10:55:18.366Z,962.66
2016-08-30T10:56:19.686Z,962.64
2016-08-30T11:06:24.055Z,962.70
2016-08-30T11:06:29.593Z,962.73
2016-08-30T11:08:26.725Z,962.71
2016-08-30T11:10:28.596Z,962.65
2016-08-30T11:13:29.326Z,962.64
2016-08-30T11:16:47.952Z,962.73
2016-08-30T11:21:29.909Z,962.66
2016-08-30T11:27:21.276Z,962.58
2016-08-30T11:29:25.887Z,962.55
2016-08-30T11:30:25.396Z,962.57
2016-08-30T11:31:32.233Z,962.53
2016-08-30T11:32:22.985Z,962.57
2016-08-30T11:33:17.381Z,962.54
2016-08-30T11:34:28.573Z,962.52
2016-08-30T11:35:26.555Z,962.55
2016-08-30T11:37:42.380Z,962.54
2016-08-30T11:38:21.965Z,962.50
2016-08-30T11:39:28.728Z,962.54
2016-08-30T11:40:26.936Z,962.47
2016-08-30T11:42:28.861Z,962.52
2016-08-30T11:43:30.654Z,962.49
2016-08-30T11:45:30.482Z,962.41
2016-08-30T11:46:17.284Z,962.43
2016-08-30T11:47:23.075Z,962.40
2016-08-30T11:48:26.731Z,962.35
2016-08-30T11:49:28.308Z,962.36
2016-08-30T11:50:24.441Z,962.33
2016-08-30T11:52:28.032Z,962.33
2016-08-30T11:53:27.831Z,962.36
2016-08-30T11:54:23.015Z,962.28
2016-08-30T11:55:28.057Z,962.29
2016-08-30T11:58:24.523Z,962.30
2016-08-30T11:59:22.641Z,962.30
2016-08-30T12:00:22.824Z,962.27
2016-08-30T12:01:27.475Z,962.27
2016-08-30T12:02:22.666Z,962.27
2016-08-30T12:03:54.035Z,962.23
2016-08-30T12:04:29.842Z,962.22
2016-08-30T12:12:40.409Z,962.24
2016-08-30T12:42:26.341Z,962.06
2016-08-30T12:43:20.772Z,962.03
2016-08-30T12:52:19.794Z,961.96
2016-08-30T13:04:33.630Z,961.83
2016-08-30T13:05:45.131Z,962.05
2016-08-30T13:05:51.027Z,961.87
2016-08-30T13:07:19.350Z,961.83
2016-08-30T13:08:28.167Z,961.79
2016-08-30T13:09:27.431Z,961.80
2016-08-30T13:10:21.929Z,961.74
2016-08-30T13:11:19.868Z,961.71
2016-08-30T13:13:39.150Z,961.65
2016-08-30T13:14:22.957Z,961.70
2016-08-30T13:15:32.352Z,961.66
2016-08-30T13:27:25.639Z,961.67
2016-08-30T13:30:22.535Z,961.60
2016-08-30T13:31:20.712Z,961.56
2016-08-30T13:32:29.521Z,961.56
2016-08-30T13:34:25.796Z,961.47
2016-08-30T13:35:33.979Z,961.51
2016-08-30T13:36:25.210Z,961.54
2016-08-30T13:37:36.387Z,961.49
2016-08-30T13:41:27.861Z,961.50
2016-08-30T13:49:27.465Z,961.53
2016-08-30T13:50:26.650Z,961.47
2016-08-30T13:51:39.404Z,961.47
2016-08-30T13:52:21.346Z,961.42
2016-08-30T13:53:23.094Z,961.39
2016-08-30T13:54:28.346Z,961.40
2016-08-30T13:55:23.617Z,961.41
2016-08-30T13:57:17.368Z,961.33
2016-08-30T13:58:33.848Z,961.38
2016-08-30T13:59:20.813Z,961.41
2016-08-30T14:00:33.986Z,961.36
2016-08-30T14:05:30.564Z,961.33
2016-08-30T14:10:17.276Z,961.20
2016-08-30T14:10:39.379Z,961.27
2016-08-30T14:11:27.499Z,961.23
2016-08-30T14:12:19.654Z,961.24
2016-08-30T14:13:18.619Z,961.24
2016-08-30T14:14:27.412Z,961.21
2016-08-30T14:15:28.876Z,961.20
2016-08-30T14:16:28.194Z,961.27
2016-08-30T14:17:35.788Z,961.18
2016-08-30T14:18:27.685Z,961.21
2016-08-30T14:19:17.381Z,961.27
2016-08-30T14:21:18.057Z,961.24
2016-08-30T14:23:21.187Z,961.26
2016-08-30T14:24:21.290Z,961.26
2016-08-30T14:25:21.809Z,961.27
2016-08-30T14:26:25.675Z,961.30
2016-08-30T14:27:20.469Z,961.25
2016-08-30T14:28:23.500Z,961.25
2016-08-30T14:29:17.974Z,961.26
2016-08-30T14:30:23.192Z,961.22
2016-08-30T14:31:19.182Z,961.20
2016-08-30T14:32:18.442Z,961.21
2016-08-30T14:33:28.411Z,961.19
2016-08-30T14:34:20.768Z,961.13
2016-08-30T14:36:29.023Z,961.21
2016-08-30T14:37:18.584Z,961.18
2016-08-30T14:38:18.289Z,961.17
2016-08-30T14:39:21.119Z,961.21
2016-08-30T14:40:38.936Z,961.19
2016-08-30T14:41:22.554Z,961.16
2016-08-30T14:42:27.041Z,961.21
2016-08-30T14:43:22.184Z,961.13
2016-08-30T14:44:29.215Z,961.17
2016-08-30T14:45:27.048Z,961.16
2016-08-30T14:46:29.007Z,961.13
2016-08-30T14:47:25.029Z,961.17
2016-08-30T14:48:23.130Z,961.16
2016-08-30T14:49:34.293Z,961.12
2016-08-30T14:50:39.094Z,961.02
2016-08-30T14:51:26.230Z,961.03
2016-08-30T14:52:26.734Z,961.06
2016-08-30T14:53:22.982Z,961.05
2016-08-30T14:54:23.117Z,961.07
2016-08-30T14:55:29.212Z,961.02
2016-08-30T14:56:26.784Z,961.05
2016-08-30T14:57:21.047Z,960.91
2016-08-30T14:58:31.144Z,960.97
2016-08-30T14:59:21.088Z,960.98
2016-08-30T15:00:26.291Z,960.99
2016-08-30T15:01:25.036Z,960.98
2016-08-30T15:02:24.397Z,960.97
2016-08-30T15:03:19.050Z,961.00
2016-08-30T15:04:46.013Z,961.00
2016-08-30T15:05:15.742Z,961.04
2016-08-30T15:06:19.346Z,961.02
2016-08-30T15:07:17.646Z,961.06
2016-08-30T15:08:27.997Z,960.99
2016-08-30T15:09:20.618Z,961.02
2016-08-30T15:10:26.899Z,961.01
2016-08-30T15:11:34.137Z,961.01
2016-08-30T15:12:24.956Z,960.99
2016-08-30T15:13:33.877Z,960.95
2016-08-30T15:14:24.188Z,960.98
2016-08-30T15:15:12.259Z,960.95
2016-08-30T15:16:17.341Z,960.90
2016-08-30T15:17:28.618Z,960.95
2016-08-30T15:18:20.974Z,960.92
2016-08-30T15:19:28.121Z,960.90
2016-08-30T15:20:20.305Z,960.88
2016-08-30T15:21:27.997Z,960.90
2016-08-30T15:22:18.668Z,960.89
2016-08-30T15:23:20.234Z,960.85
2016-08-30T15:24:28.487Z,960.87
2016-08-30T15:25:26.770Z,960.86
2016-08-30T15:26:33.573Z,960.86
2016-08-30T15:27:24.101Z,960.82
2016-08-30T15:28:40.442Z,960.84
2016-08-30T15:29:22.344Z,960.84
2016-08-30T15:30:19.753Z,960.79
2016-08-30T15:32:27.682Z,960.70
2016-08-30T15:33:23.759Z,960.73
2016-08-30T15:34:28.343Z,960.69
2016-08-30T15:35:45.570Z,960.70
2016-08-30T15:36:28.840Z,960.67
2016-08-30T15:37:20.252Z,960.72
2016-08-30T15:38:27.333Z,960.67
2016-08-30T15:39:18.518Z,960.67
2016-08-30T15:40:39.468Z,960.68
2016-08-30T15:41:22.266Z,960.68
2016-08-30T15:42:21.329Z,960.69
2016-08-30T15:43:22.877Z,960.64
2016-08-30T15:44:28.381Z,960.69
2016-08-30T15:45:17.885Z,960.69
2016-08-30T15:46:28.236Z,960.67
2016-08-30T15:47:27.701Z,960.69
2016-08-30T15:48:23.023Z,960.70
2016-08-30T15:49:26.921Z,960.64
2016-08-30T15:50:23.747Z,960.75
2016-08-30T15:51:31.932Z,960.70
2016-08-30T15:52:28.815Z,960.70
2016-08-30T15:53:29.686Z,960.69
2016-08-30T15:54:20.840Z,960.69
2016-08-30T15:55:21.866Z,960.65
2016-08-30T15:56:28.980Z,960.64
2016-08-30T15:57:18.293Z,960.62
2016-08-30T15:58:33.832Z,960.58
2016-08-30T15:59:13.115Z,960.64
2016-08-30T16:00:26.219Z,960.58
2016-08-30T16:01:19.083Z,960.58
2016-08-30T16:02:43.120Z,960.55
2016-08-30T16:03:18.187Z,960.54
2016-08-30T16:04:25.456Z,960.57
2016-08-30T16:05:20.795Z,960.54
2016-08-30T16:06:20.734Z,960.59
2016-08-30T16:07:39.738Z,960.59
2016-08-30T16:08:28.245Z,960.59
2016-08-30T16:09:39.381Z,960.61
2016-08-30T16:10:18.527Z,960.61
2016-08-30T16:11:26.666Z,960.55
2016-08-30T16:12:23.437Z,960.57
2016-08-30T16:13:22.734Z,960.54
2016-08-30T16:15:17.786Z,960.56
2016-08-30T16:16:24.581Z,960.58
2016-08-30T16:17:25.859Z,960.56
2016-08-30T16:18:19.606Z,960.55
2016-08-30T16:19:18.889Z,960.61
2016-08-30T16:20:19.050Z,960.54
2016-08-30T16:21:11.965Z,960.57
2016-08-30T16:22:20.486Z,960.54
2016-08-30T16:23:19.914Z,960.51
2016-08-30T16:24:19.694Z,960.50
2016-08-30T16:25:20.231Z,960.50
2016-08-30T16:26:43.653Z,960.54
2016-08-30T16:27:25.739Z,960.56
2016-08-30T16:28:24.332Z,960.56
2016-08-30T16:29:23.229Z,960.54
2016-08-30T16:30:18.285Z,960.53
2016-08-30T16:31:23.581Z,960.53
2016-08-30T16:32:25.725Z,960.56
2016-08-30T16:33:26.996Z,960.52
2016-08-30T16:34:33.972Z,960.54
2016-08-30T16:35:24.285Z,960.54
2016-08-30T16:36:20.490Z,960.55
2016-08-30T16:37:28.678Z,960.49
2016-08-30T16:38:32.798Z,960.47
2016-08-30T16:40:33.335Z,960.43
2016-08-30T16:41:22.700Z,960.50
2016-08-30T16:42:24.499Z,960.53
2016-08-30T16:43:24.235Z,960.56
2016-08-30T16:44:34.244Z,960.52
2016-08-30T16:45:20.785Z,960.54
2016-08-30T16:46:19.564Z,960.54
2016-08-30T16:47:28.480Z,960.53
2016-08-30T16:48:28.105Z,960.52
2016-08-30T16:49:38.565Z,960.53
2016-08-30T16:50:27.634Z,960.50
2016-08-30T16:51:27.000Z,960.55
2016-08-30T16:52:33.907Z,960.56
2016-08-30T16:53:27.542Z,960.57
2016-08-30T16:54:33.717Z,960.57
2016-08-30T16:55:20.066Z,960.56
2016-08-30T16:56:26.325Z,960.57
2016-08-30T16:57:27.763Z,960.58
2016-08-30T16:58:27.496Z,960.59
2016-08-30T16:59:20.852Z,960.54
2016-08-30T17:00:21.756Z,960.53
2016-08-30T17:01:39.652Z,960.61
2016-08-30T17:02:18.705Z,960.57
2016-08-30T17:03:34.234Z,960.59
2016-08-30T17:04:28.102Z,960.55
2016-08-30T17:05:25.104Z,960.61
2016-08-30T17:06:32.876Z,960.61
2016-08-30T17:07:25.028Z,960.58
2016-08-30T17:08:29.766Z,960.58
2016-08-30T17:09:32.981Z,960.58
2016-08-30T17:10:19.027Z,960.59
2016-08-30T17:11:40.252Z,960.61
2016-08-30T17:12:23.104Z,960.59
2016-08-30T17:13:20.818Z,960.60
2016-08-30T17:14:27.840Z,960.62
2016-08-30T17:15:31.348Z,960.63
2016-08-30T17:16:40.247Z,960.61
2016-08-30T17:17:21.874Z,960.64
2016-08-30T17:18:24.130Z,960.64
2016-08-30T17:19:24.091Z,960.66
2016-08-30T17:20:22.792Z,960.65
2016-08-30T17:21:34.092Z,960.68
2016-08-30T17:22:34.272Z,960.67
2016-08-30T17:23:22.947Z,960.68
2016-08-30T17:24:27.551Z,960.70
2016-08-30T17:25:21.114Z,960.70
2016-08-30T17:26:29.036Z,960.68
2016-08-30T17:27:31.782Z,960.69
2016-08-30T17:28:28.074Z,960.69
2016-08-30T17:29:25.084Z,960.67
2016-08-30T17:30:28.414Z,960.70
2016-08-30T17:31:33.524Z,960.66
2016-08-30T17:32:22.611Z,960.68
2016-08-30T17:33:28.764Z,960.72
2016-08-30T17:34:29.877Z,960.68
2016-08-30T17:35:18.703Z,960.70
2016-08-30T17:36:26.116Z,960.73
2016-08-30T17:37:23.834Z,960.75
2016-08-30T17:38:29.971Z,960.75
2016-08-30T17:39:28.290Z,960.79
2016-08-30T17:40:26.434Z,960.80
2016-08-30T17:41:34.220Z,960.81
2016-08-30T17:42:17.835Z,960.84
2016-08-30T17:43:15.973Z,960.84
2016-08-30T17:44:17.764Z,960.85
2016-08-30T17:45:18.674Z,960.89
2016-08-30T17:46:21.286Z,960.86
2016-08-30T17:47:24.696Z,960.86
2016-08-30T17:48:25.801Z,960.87
2016-08-30T17:49:27.078Z,960.88
2016-08-30T17:50:31.399Z,960.86
2016-08-30T17:51:28.519Z,960.89
2016-08-30T17:52:29.214Z,960.89
2016-08-30T17:53:21.201Z,960.90
2016-08-30T17:54:22.683Z,960.92
2016-08-30T17:55:18.659Z,960.87
2016-08-30T17:56:27.992Z,960.87
2016-08-30T17:57:23.513Z,960.92
2016-08-30T17:58:19.697Z,960.94
2016-08-30T17:59:18.629Z,960.94
2016-08-30T18:00:31.465Z,960.97
2016-08-30T18:01:17.999Z,960.97
2016-08-30T18:02:22.752Z,960.93
2016-08-30T18:03:25.284Z,961.01
2016-08-30T18:04:25.855Z,961.00
2016-08-30T18:05:44.312Z,960.98
2016-08-30T18:06:23.204Z,961.00
2016-08-30T18:07:23.721Z,960.96
2016-08-30T18:08:30.147Z,960.99
2016-08-30T18:09:34.412Z,961.02
2016-08-30T18:10:28.650Z,961.05
2016-08-30T18:11:35.103Z,960.99
2016-08-30T18:12:40.188Z,961.01
2016-08-30T18:13:27.760Z,961.04
2016-08-30T18:14:36.363Z,961.06
2016-08-30T18:15:19.243Z,961.12
2016-08-30T18:16:33.652Z,961.11
2016-08-30T18:17:28.393Z,961.12
2016-08-30T18:18:26.064Z,961.14
2016-08-30T18:19:23.607Z,961.12
2016-08-30T18:20:20.642Z,961.15
2016-08-30T18:21:18.844Z,961.17
2016-08-30T18:22:26.924Z,961.12
2016-08-30T18:23:28.213Z,961.17
2016-08-30T18:24:24.409Z,961.18
2016-08-30T18:25:20.639Z,961.17
2016-08-30T18:26:18.166Z,961.21
2016-08-30T18:27:22.547Z,961.23
2016-08-30T18:28:28.247Z,961.25
2016-08-30T18:29:22.960Z,961.25
2016-08-30T18:30:18.869Z,961.23
2016-08-30T18:31:23.333Z,961.29
2016-08-30T18:32:27.849Z,961.28
2016-08-30T18:34:18.161Z,961.32
2016-08-30T18:35:25.841Z,961.34
2016-08-30T18:36:26.599Z,961.34
2016-08-30T18:37:35.906Z,961.31
2016-08-30T18:38:24.633Z,961.32
2016-08-30T18:39:39.804Z,961.29
2016-08-30T18:40:32.923Z,961.33
2016-08-30T18:41:24.431Z,961.31
2016-08-30T18:42:25.762Z,961.31
2016-08-30T18:43:19.011Z,961.30
2016-08-30T18:44:23.640Z,961.33
2016-08-30T18:45:12.082Z,961.34
2016-08-30T18:46:24.374Z,961.35
2016-08-30T18:47:20.889Z,961.34
2016-08-30T18:48:35.871Z,961.30
2016-08-30T18:49:22.571Z,961.28
2016-08-30T18:50:29.254Z,961.29
2016-08-30T19:19:32.711Z,961.28
2016-08-30T19:19:49.352Z,961.28
2016-08-30T19:21:46.000Z,961.25
2016-08-30T19:23:23.866Z,961.24
2016-08-30T19:24:27.955Z,961.26
2016-08-30T19:25:29.187Z,961.22
2016-08-30T19:26:23.430Z,961.25
2016-08-30T19:34:39.096Z,961.30
2016-08-30T19:35:31.006Z,961.29
2016-08-30T19:36:28.027Z,961.30
2016-08-30T19:37:26.749Z,961.33
2016-08-30T19:39:00.738Z,961.35
2016-08-30T19:39:37.026Z,961.34
2016-08-30T20:05:33.253Z,961.34
2016-08-30T20:09:42.455Z,961.31
2016-08-30T20:21:56.916Z,961.38
2016-08-30T20:22:02.217Z,961.39
2016-08-30T20:22:47.228Z,961.43
2016-08-30T20:23:42.197Z,961.39
2016-08-30T20:24:42.096Z,961.40
2016-08-30T20:25:38.788Z,961.39
2016-08-30T20:27:34.027Z,961.35
2016-08-30T20:31:13.961Z,961.42
2016-08-30T20:31:31.612Z,961.38
2016-08-30T20:32:40.845Z,961.38
2016-08-30T20:52:19.179Z,961.46
2016-08-30T20:53:59.628Z,961.42
2016-08-30T20:54:27.918Z,961.42
2016-08-30T20:55:22.914Z,961.38
2016-08-30T20:56:25.223Z,961.41
2016-08-30T20:57:18.460Z,961.40
2016-08-30T20:58:32.408Z,961.42
2016-08-30T21:17:23.651Z,961.42
2016-08-30T21:20:41.156Z,961.43
2016-08-30T21:34:51.175Z,961.31
2016-08-30T21:58:20.220Z,961.20
